Time;durP1;ratioP1;P1;durP2;ratioP2;P2;SDS_P1;SDS_P2;PMS_P1;PMS_P2;Temp;Humidity;BMP_temperature;BMP_pressure;BME280_temperature;BME280_humidity;BME280_pressure;Samples;Min_cycle;Max_cycle;Signal;HPM_P1;HPM_P2
2023/09/05 00:01:45;;;;;;;0.10;0.10;;;;;;;19.25;63.93;102139.13;5029711;28;20052;-83
2023/09/05 00:04:13;;;;;;;0.10;0.10;;;;;;;19.24;64.01;102148.16;5025734;28;20105;-83
2023/09/05 00:06:40;;;;;;;0.00;0.00;;;;;;;19.21;64.50;102146.41;5028472;28;20032;-83
2023/09/05 00:09:06;;;;;;;0.10;0.10;;;;;;;19.19;64.65;102133.97;5030573;28;20040;-83
2023/09/05 00:11:33;;;;;;;0.10;0.10;;;;;;;19.18;64.25;102137.63;5031730;28;20083;-83
2023/09/05 00:14:02;;;;;;;0.10;0.10;;;;;;;19.18;64.22;102134.94;5029811;28;20041;-83
2023/09/05 00:16:29;;;;;;;0.10;0.10;;;;;;;19.17;64.07;102130.50;5027784;28;20500;-83
2023/09/05 00:18:55;;;;;;;0.10;0.10;;;;;;;19.16;64.39;102134.09;5030611;28;20025;-83
2023/09/05 00:21:21;;;;;;;0.10;0.10;;;;;;;19.14;63.99;102126.09;5028495;28;20116;-83
2023/09/05 00:23:48;;;;;;;0.10;0.10;;;;;;;19.12;63.97;102121.72;5031169;28;20505;-83
2023/09/05 00:26:14;;;;;;;0.17;0.17;;;;;;;19.10;64.03;102123.56;5030160;28;20030;-83
2023/09/05 00:28:42;;;;;;;0.10;0.10;;;;;;;19.08;63.68;102116.44;5033768;28;20034;-83
2023/09/05 00:31:11;;;;;;;0.10;0.10;;;;;;;19.06;64.03;102123.66;5033809;28;20392;-82
2023/09/05 00:33:37;;;;;;;0.10;0.10;;;;;;;19.05;63.89;102119.25;5035784;28;20029;-83
2023/09/05 00:36:04;;;;;;;0.03;0.03;;;;;;;19.05;63.80;102116.56;5033469;28;20025;-83
2023/09/05 00:38:32;;;;;;;0.10;0.10;;;;;;;19.01;64.72;102116.72;5033527;28;20100;-84
2023/09/05 00:41:00;;;;;;;0.10;0.10;;;;;;;19.00;64.28;102118.50;5033368;28;20412;-83
2023/09/05 00:43:26;;;;;;;0.00;0.00;;;;;;;18.97;63.96;102113.25;5035739;28;20025;-83
2023/09/05 00:45:56;;;;;;;0.03;0.03;;;;;;;18.97;64.03;102124.00;5032621;28;20040;-83
2023/09/05 00:48:27;;;;;;;0.10;0.10;;;;;;;18.92;64.83;102121.47;5026533;28;20488;-83
2023/09/05 00:50:56;;;;;;;0.20;0.20;;;;;;;18.91;64.27;102119.72;5031306;28;20038;-83
2023/09/05 00:53:24;;;;;;;0.10;0.10;;;;;;;18.88;64.43;102114.44;5038771;28;20391;-84
2023/09/05 00:55:51;;;;;;;0.00;0.00;;;;;;;18.86;64.60;102115.41;5030903;28;20030;-84
2023/09/05 00:58:17;;;;;;;0.10;0.10;;;;;;;18.84;64.15;102117.25;5031700;28;20392;-84
2023/09/05 01:00:44;;;;;;;0.43;0.43;;;;;;;18.82;64.22;102113.78;5032834;28;20079;-84
2023/09/05 01:03:10;;;;;;;0.10;0.10;;;;;;;18.80;64.48;102115.63;5033598;28;20029;-84
2023/09/05 01:05:43;;;;;;;0.10;0.10;;;;;;;18.78;64.36;102113.00;5038244;28;20103;-84
2023/09/05 01:08:21;;;;;;;0.10;0.10;;;;;;;18.78;64.02;102113.00;5028471;28;20044;-84
2023/09/05 01:10:59;;;;;;;0.10;0.10;;;;;;;18.76;63.92;102112.16;5034936;28;20039;-84
2023/09/05 01:13:26;;;;;;;0.10;0.10;;;;;;;18.70;64.33;102107.88;5049296;28;20036;-84
2023/09/05 01:15:53;;;;;;;0.10;0.10;;;;;;;18.67;64.44;102105.31;5056486;28;20044;-84
2023/09/05 01:18:20;;;;;;;0.10;0.10;;;;;;;18.65;64.31;102112.53;5055037;28;20068;-84
2023/09/05 01:21:10;;;;;;;0.00;0.00;;;;;;;18.68;64.61;102106.16;5046608;28;20510;-84
2023/09/05 01:23:45;;;;;;;0.10;0.10;;;;;;;18.65;64.60;102106.28;5032048;28;20021;-84
2023/09/05 01:26:11;;;;;;;0.10;0.10;;;;;;;18.60;64.96;102098.38;5033735;28;20022;-84
2023/09/05 01:28:41;;;;;;;0.20;0.20;;;;;;;18.56;64.82;102099.44;5028079;28;20381;-84
2023/09/05 01:31:09;;;;;;;0.10;0.10;;;;;;;18.54;64.95;102102.16;5034201;28;20105;-84
2023/09/05 01:33:38;;;;;;;0.10;0.10;;;;;;;18.53;65.47;102103.09;5034600;28;20127;-84
2023/09/05 01:36:05;;;;;;;0.10;0.10;;;;;;;18.53;65.11;102104.88;5041176;28;20045;-84
2023/09/05 01:38:31;;;;;;;0.17;0.17;;;;;;;18.54;64.98;102094.13;5032897;28;20053;-84
2023/09/05 01:40:57;;;;;;;0.10;0.10;;;;;;;18.53;65.19;102089.66;5033240;28;20117;-84
2023/09/05 01:43:23;;;;;;;0.10;0.10;;;;;;;18.54;65.11;102095.91;5036070;28;20083;-84
2023/09/05 01:45:49;;;;;;;0.10;0.10;;;;;;;18.53;64.71;102091.47;5033936;28;20037;-85
2023/09/05 01:48:15;;;;;;;0.10;0.10;;;;;;;18.52;64.91;102081.69;5035869;28;20392;-84
2023/09/05 01:50:42;;;;;;;0.10;0.10;;;;;;;18.52;64.67;102085.22;5029425;28;20032;-84
2023/09/05 01:53:08;;;;;;;0.00;0.00;;;;;;;18.51;64.88;102086.16;5033473;28;20108;-84
2023/09/05 01:55:34;;;;;;;0.10;0.10;;;;;;;18.49;65.23;102084.44;5034241;28;20405;-84
2023/09/05 01:58:00;;;;;;;0.40;0.40;;;;;;;18.48;65.38;102082.69;5027146;28;20055;-84
2023/09/05 02:00:26;;;;;;;0.10;0.10;;;;;;;18.46;65.22;102079.19;5031063;28;20044;-84
2023/09/05 02:02:52;;;;;;;0.10;0.10;;;;;;;18.45;65.14;102082.81;5032204;28;20496;-84
2023/09/05 02:05:18;;;;;;;0.10;0.10;;;;;;;18.42;65.63;102083.78;5031827;28;20032;-84
2023/09/05 02:07:44;;;;;;;0.20;0.20;;;;;;;18.38;65.47;102083.00;5034554;28;20026;-84
2023/09/05 02:10:10;;;;;;;0.10;0.10;;;;;;;18.35;65.49;102079.53;5032420;28;20025;-84
2023/09/05 02:12:37;;;;;;;0.10;0.10;;;;;;;18.32;66.05;102079.63;5031258;28;20121;-84
2023/09/05 02:15:04;;;;;;;0.10;0.10;;;;;;;18.29;65.57;102071.69;5030793;28;20033;-84
2023/09/05 02:17:31;;;;;;;0.10;0.10;;;;;;;18.27;65.49;102069.94;5030493;28;20428;-84
2023/09/05 02:19:57;;;;;;;0.10;0.10;;;;;;;18.25;65.72;102070.91;5031872;28;20029;-84
2023/09/05 02:22:24;;;;;;;0.10;0.10;;;;;;;18.22;65.79;102060.31;5036156;28;20040;-84
2023/09/05 02:24:50;;;;;;;0.10;0.10;;;;;;;18.18;66.00;102064.88;5031344;28;20025;-84
2023/09/05 02:27:16;;;;;;;0.10;0.10;;;;;;;18.18;65.35;102058.63;5035625;28;20044;-84
2023/09/05 02:29:51;;;;;;;0.10;0.10;;;;;;;18.14;65.41;102056.97;5037088;28;20369;-84
2023/09/05 02:32:17;;;;;;;0.10;0.10;;;;;;;18.13;65.39;102047.19;5036739;28;20046;-84
2023/09/05 02:34:49;;;;;;;0.05;0.05;;;;;;;18.11;65.98;102048.09;5032063;28;20551;-84
2023/09/05 02:37:15;;;;;;;0.15;0.15;;;;;;;18.08;66.25;102050.00;5029266;28;20044;-84
2023/09/05 02:39:41;;;;;;;0.10;0.10;;;;;;;18.07;65.95;102051.81;5031751;28;20040;-84
2023/09/05 02:42:07;;;;;;;0.10;0.10;;;;;;;18.06;65.58;102050.06;5029648;28;20026;-84
2023/09/05 02:44:34;;;;;;;0.10;0.10;;;;;;;18.06;65.38;102058.09;5033340;28;20044;-84
2023/09/05 02:47:00;;;;;;;0.40;0.40;;;;;;;18.04;65.82;102053.72;5031432;28;20037;-84
2023/09/05 02:49:26;;;;;;;0.10;0.10;;;;;;;18.04;65.66;102057.25;5029555;28;20029;-84
2023/09/05 02:51:52;;;;;;;0.50;0.50;;;;;;;18.03;65.80;102058.22;5027208;28;20033;-84
2023/09/05 02:54:18;;;;;;;0.25;0.25;;;;;;;18.02;66.02;102064.50;5032931;28;20411;-84
2023/09/05 02:56:45;;;;;;;0.10;0.10;;;;;;;18.02;65.43;102061.81;5025364;28;20021;-84
2023/09/05 02:59:11;;;;;;;0.10;0.10;;;;;;;18.02;65.74;102053.78;5029409;28;20037;-84
2023/09/05 03:01:37;;;;;;;0.08;0.08;;;;;;;18.02;65.83;102051.09;5039461;28;20037;-84
2023/09/05 03:04:03;;;;;;;0.15;0.15;;;;;;;17.98;65.96;102049.44;5030080;28;20022;-84
2023/09/05 03:06:29;;;;;;;0.10;0.10;;;;;;;17.97;65.95;102049.47;5037646;28;20075;-84
2023/09/05 03:08:55;;;;;;;0.00;0.00;;;;;;;17.94;65.79;102048.66;5033030;28;20033;-83
2023/09/05 03:11:21;;;;;;;0.00;0.00;;;;;;;17.91;65.51;102050.53;5035608;28;20013;-84
2023/09/05 03:13:47;;;;;;;0.10;0.10;;;;;;;17.91;65.88;102050.53;5025798;28;20033;-84
2023/09/05 03:16:14;;;;;;;0.10;0.10;;;;;;;17.88;66.00;102038.09;5028139;28;20033;-84
2023/09/05 03:18:40;;;;;;;0.10;0.10;;;;;;;17.86;65.97;102047.13;5031962;28;20704;-84
2023/09/05 03:21:07;;;;;;;0.10;0.10;;;;;;;17.82;66.37;102042.75;5031743;28;20120;-84
2023/09/05 03:23:34;;;;;;;0.10;0.10;;;;;;;17.80;65.86;102032.09;5038455;28;20040;-84
2023/09/05 03:26:00;;;;;;;0.00;0.00;;;;;;;17.81;65.86;102041.00;5033508;28;20404;-84
2023/09/05 03:28:39;;;;;;;0.10;0.10;;;;;;;17.85;66.32;102037.31;5035508;28;20024;-84
2023/09/05 03:31:05;;;;;;;0.10;0.10;;;;;;;17.77;66.34;102029.53;5030249;28;20485;-83
2023/09/05 03:33:31;;;;;;;0.80;0.45;;;;;;;17.74;66.49;102027.78;5035580;28;20024;-84
2023/09/05 03:35:57;;;;;;;0.05;0.05;;;;;;;17.72;66.25;102021.63;5032396;28;20108;-84
2023/09/05 03:38:23;;;;;;;0.10;0.10;;;;;;;17.73;66.28;102017.13;5030688;28;20037;-84
2023/09/05 03:40:49;;;;;;;0.10;0.10;;;;;;;17.72;66.21;102018.94;5035721;28;20038;-84
2023/09/05 03:43:15;;;;;;;0.00;0.00;;;;;;;17.73;66.13;102014.44;5032221;28;20021;-84
2023/09/05 03:45:44;;;;;;;0.10;0.10;;;;;;;17.75;66.54;102012.59;5030898;28;20083;-84
2023/09/05 03:48:10;;;;;;;0.22;0.22;;;;;;;17.74;65.93;102017.06;5032551;28;20017;-84
2023/09/05 03:50:36;;;;;;;0.47;0.47;;;;;;;17.72;66.67;102013.56;5037157;28;20048;-84
2023/09/05 03:53:02;;;;;;;0.10;0.10;;;;;;;17.72;66.53;102010.88;5030963;28;20056;-84
2023/09/05 03:55:30;;;;;;;0.00;0.00;;;;;;;17.72;66.53;102008.22;5034886;28;20516;-84
2023/09/05 03:57:56;;;;;;;0.08;0.08;;;;;;;17.70;66.42;102010.06;5035505;28;20021;-84
2023/09/05 04:00:22;;;;;;;0.10;0.10;;;;;;;17.69;66.53;102012.78;5029671;28;20045;-84
2023/09/05 04:02:48;;;;;;;0.90;0.55;;;;;;;17.71;66.05;102011.81;5032573;28;20029;-84
2023/09/05 04:05:14;;;;;;;0.10;0.10;;;;;;;17.70;66.17;102009.19;5044508;28;20042;-83
2023/09/05 04:07:40;;;;;;;0.52;0.52;;;;;;;17.65;66.18;102012.00;5034243;28;20025;-84
2023/09/05 04:10:06;;;;;;;0.22;0.22;;;;;;;17.69;66.15;102008.28;5030099;28;20458;-83
2023/09/05 04:12:33;;;;;;;0.10;0.10;;;;;;;17.68;66.24;102011.88;5033760;28;20030;-84
2023/09/05 04:14:59;;;;;;;0.22;0.20;;;;;;;17.68;65.78;102017.25;5034721;28;20033;-84
2023/09/05 04:17:25;;;;;;;0.40;0.40;;;;;;;17.65;66.18;102012.00;5048404;28;20097;-83
2023/09/05 04:19:54;;;;;;;0.35;0.35;;;;;;;17.63;66.37;102020.09;5060190;28;20041;-83
2023/09/05 04:22:21;;;;;;;0.10;0.10;;;;;;;17.64;65.96;102015.59;5046633;28;20033;-84
2023/09/05 04:24:52;;;;;;;0.10;0.10;;;;;;;17.65;66.02;102021.84;5046558;28;20026;-84
2023/09/05 04:27:18;;;;;;;0.45;0.30;;;;;;;17.61;66.11;102018.38;5044031;28;20527;-84
2023/09/05 04:29:44;;;;;;;0.45;0.25;;;;;;;17.60;66.04;102014.81;5042196;28;20060;-84
2023/09/05 04:32:10;;;;;;;0.20;0.20;;;;;;;17.58;66.57;102013.09;5036673;28;20033;-84
2023/09/05 04:34:36;;;;;;;0.20;0.20;;;;;;;17.56;66.38;102012.31;5045039;28;20079;-85
2023/09/05 04:37:02;;;;;;;0.63;0.63;;;;;;;17.55;65.99;102021.25;5040787;28;20025;-85
2023/09/05 04:39:28;;;;;;;0.00;0.00;;;;;;;17.53;65.99;102009.69;5040334;28;20032;-85
2023/09/05 04:41:54;;;;;;;5.05;0.68;;;;;;;17.53;65.79;102023.09;5040514;28;20025;-85
2023/09/05 04:44:21;;;;;;;0.10;0.10;;;;;;;17.51;65.71;102014.22;5035502;28;20029;-85
2023/09/05 04:46:47;;;;;;;0.00;0.00;;;;;;;17.49;66.46;102014.28;5034788;28;20400;-85
2023/09/05 04:49:13;;;;;;;0.05;0.05;;;;;;;17.50;66.13;102017.84;5035834;28;20326;-85
2023/09/05 04:51:39;;;;;;;0.10;0.10;;;;;;;17.48;66.46;102014.31;5039392;28;20037;-84
2023/09/05 04:54:05;;;;;;;0.00;0.00;;;;;;;17.47;66.32;102018.81;5035367;28;20057;-85
2023/09/05 04:56:31;;;;;;;0.20;0.20;;;;;;;17.45;66.57;102024.19;5037660;28;20485;-86
2023/09/05 04:58:57;;;;;;;1.45;1.35;;;;;;;17.46;66.31;102017.06;5034767;28;20048;-85
2023/09/05 05:01:23;;;;;;;0.10;0.10;;;;;;;17.43;66.29;102012.66;5025952;28;20034;-85
2023/09/05 05:03:49;;;;;;;0.00;0.00;;;;;;;17.44;66.19;102025.13;5032304;28;20527;-85
2023/09/05 05:06:15;;;;;;;0.17;0.17;;;;;;;17.44;66.24;102013.53;5034387;28;20025;-85
2023/09/05 05:08:42;;;;;;;0.10;0.10;;;;;;;17.41;66.94;102017.19;5034844;28;20025;-85
2023/09/05 05:11:08;;;;;;;0.10;0.10;;;;;;;17.42;66.69;102016.28;5032943;28;20052;-84
2023/09/05 05:13:34;;;;;;;0.00;0.00;;;;;;;17.42;66.36;102024.31;5039051;28;20045;-85
2023/09/05 05:16:00;;;;;;;0.13;0.13;;;;;;;17.41;66.52;102019.88;5042552;28;20034;-85
2023/09/05 05:18:26;;;;;;;0.32;0.32;;;;;;;17.40;66.84;102018.09;5039770;28;20042;-85
2023/09/05 05:20:52;;;;;;;0.10;0.10;;;;;;;17.42;66.60;102015.38;5036103;28;20041;-85
2023/09/05 05:23:18;;;;;;;0.10;0.10;;;;;;;17.41;66.84;102014.50;5035124;28;20108;-85
2023/09/05 05:25:44;;;;;;;0.10;0.10;;;;;;;17.42;66.62;102015.38;5037158;28;20525;-85
2023/09/05 05:28:10;;;;;;;0.03;0.03;;;;;;;17.43;67.05;102011.78;5031283;28;20045;-85
2023/09/05 05:30:36;;;;;;;0.10;0.10;;;;;;;17.45;66.59;102009.94;5036218;28;20029;-85
2023/09/05 05:33:03;;;;;;;0.10;0.10;;;;;;;17.44;67.39;102018.88;5038388;28;20026;-85
2023/09/05 05:35:29;;;;;;;0.63;0.50;;;;;;;17.45;66.74;102018.84;5038421;28;20188;-85
2023/09/05 05:37:55;;;;;;;0.30;0.30;;;;;;;17.50;66.58;102020.53;5033783;28;20033;-85
2023/09/05 05:40:21;;;;;;;0.00;0.00;;;;;;;17.51;66.76;102019.56;5038902;28;20045;-85
2023/09/05 05:42:47;;;;;;;0.10;0.10;;;;;;;17.54;67.09;102022.19;5038000;28;20057;-85
2023/09/05 05:45:14;;;;;;;0.10;0.10;;;;;;;17.56;66.88;102023.03;5035535;28;20504;-85
2023/09/05 05:47:40;;;;;;;0.10;0.10;;;;;;;17.58;66.85;102031.88;5035184;28;20539;-85
2023/09/05 05:50:08;;;;;;;0.10;0.10;;;;;;;17.61;66.83;102035.34;5031353;28;20038;-85
2023/09/05 05:52:35;;;;;;;0.08;0.08;;;;;;;17.64;66.69;102031.69;5035596;28;20033;-85
2023/09/05 05:55:01;;;;;;;0.10;0.10;;;;;;;17.69;66.65;102036.91;5031775;28;20021;-85
2023/09/05 05:57:27;;;;;;;0.10;0.10;;;;;;;17.72;66.66;102029.66;5034503;28;20033;-84
2023/09/05 05:59:53;;;;;;;0.10;0.10;;;;;;;17.76;66.57;102031.31;5035948;28;20030;-85
2023/09/05 06:02:19;;;;;;;0.00;0.00;;;;;;;17.76;66.92;102031.31;5033190;28;20409;-85
2023/09/05 06:04:45;;;;;;;0.10;0.10;;;;;;;17.79;66.59;102020.50;5033376;28;20032;-85
2023/09/05 06:07:11;;;;;;;0.10;0.10;;;;;;;17.82;67.01;102018.63;5035003;28;20033;-85
2023/09/05 06:09:37;;;;;;;0.10;0.10;;;;;;;17.86;67.23;102015.81;5038287;28;20034;-85
2023/09/05 06:12:04;;;;;;;1.10;1.00;;;;;;;17.93;67.46;102021.84;5037078;28;20457;-86
2023/09/05 06:14:31;;;;;;;0.10;0.10;;;;;;;17.98;67.35;102028.00;5035496;28;20029;-87
2023/09/05 06:16:57;;;;;;;0.05;0.05;;;;;;;17.98;67.52;102025.31;5026936;28;20037;-84
2023/09/05 06:19:23;;;;;;;0.28;0.28;;;;;;;18.09;67.41;102027.63;5032652;28;20041;-86
2023/09/05 06:21:49;;;;;;;0.10;0.10;;;;;;;18.17;66.96;102022.00;5033837;28;20120;-87
2023/09/05 06:24:16;;;;;;;1.20;1.17;;;;;;;18.23;67.09;102019.09;5026558;28;20519;-87
2023/09/05 06:26:44;;;;;;;0.10;0.10;;;;;;;18.29;66.83;102026.97;5031337;28;20029;-88
2023/09/05 06:29:10;;;;;;;0.10;0.10;;;;;;;18.33;66.76;102031.31;5021367;28;20457;-87
2023/09/05 06:31:36;;;;;;;0.13;0.13;;;;;;;18.43;66.70;102027.38;5033682;28;20029;-85
2023/09/05 06:34:03;;;;;;;0.80;0.65;;;;;;;18.52;66.62;102036.06;5049234;28;20041;-88
2023/09/05 06:36:29;;;;;;;1.33;1.30;;;;;;;18.58;66.73;102025.09;5046712;28;20044;-87
2023/09/05 06:38:55;;;;;;;1.05;1.00;;;;;;;18.68;66.69;102031.00;5032094;28;20427;-86
2023/09/05 06:41:21;;;;;;;0.10;0.10;;;;;;;18.73;66.65;102029.91;5031269;28;20071;-86
2023/09/05 06:43:47;;;;;;;0.20;0.20;;;;;;;18.79;66.83;102027.94;5040026;28;20399;-86
2023/09/05 06:46:13;;;;;;;0.10;0.10;;;;;;;18.88;66.36;102025.81;5036514;28;20021;-86
2023/09/05 06:48:40;;;;;;;0.45;0.45;;;;;;;18.98;66.15;102021.03;5036020;28;20135;-86
2023/09/05 06:51:07;;;;;;;0.20;0.20;;;;;;;19.10;66.03;102017.00;5045475;28;20021;-86
2023/09/05 06:53:33;;;;;;;0.10;0.10;;;;;;;19.07;66.17;102014.44;5033790;28;20025;-86
2023/09/05 06:55:59;;;;;;;0.80;0.68;;;;;;;19.17;65.83;102006.91;5036455;28;20037;-86
2023/09/05 06:58:26;;;;;;;0.05;0.05;;;;;;;19.27;65.53;102011.00;5015175;28;20030;-86
2023/09/05 07:00:54;;;;;;;0.10;0.10;;;;;;;19.38;65.48;102019.50;5034132;28;20030;-87
2023/09/05 07:03:25;;;;;;;0.65;0.65;;;;;;;19.48;65.42;102014.66;5027621;28;20029;-86
2023/09/05 07:05:56;;;;;;;0.10;0.10;;;;;;;19.56;64.85;102017.94;5029314;28;20124;-87
2023/09/05 07:08:22;;;;;;;0.10;0.10;;;;;;;19.63;64.58;102015.88;5032134;28;20405;-87
2023/09/05 07:10:48;;;;;;;0.10;0.10;;;;;;;19.71;64.52;102021.84;5035624;28;20021;-86
2023/09/05 07:13:16;;;;;;;0.10;0.10;;;;;;;19.81;64.25;102027.72;5031245;28;20396;-86
2023/09/05 07:15:43;;;;;;;0.10;0.10;;;;;;;19.93;63.94;102028.19;5025915;28;20037;-86
2023/09/05 07:18:10;;;;;;;0.20;0.20;;;;;;;20.00;63.78;102033.25;5031908;28;20071;-86
2023/09/05 07:20:36;;;;;;;0.10;0.10;;;;;;;20.02;63.60;102031.38;5058335;28;20035;-86
2023/09/05 07:23:03;;;;;;;0.20;0.20;;;;;;;20.11;63.00;102032.81;5068918;28;20030;-86
2023/09/05 07:25:29;;;;;;;0.05;0.05;;;;;;;20.24;63.36;102027.81;5045059;28;20485;-86
2023/09/05 07:27:57;;;;;;;1.65;1.27;;;;;;;20.34;63.13;102028.28;5035982;28;20033;-86
2023/09/05 07:30:23;;;;;;;0.80;0.80;;;;;;;20.42;63.07;102025.28;5031479;28;20034;-86
2023/09/05 07:32:49;;;;;;;0.10;0.10;;;;;;;20.49;62.99;102029.44;5032676;28;20614;-86
2023/09/05 07:35:16;;;;;;;0.10;0.10;;;;;;;20.57;62.81;102023.72;5035036;28;20033;-86
2023/09/05 07:37:42;;;;;;;0.00;0.00;;;;;;;20.64;62.57;102022.53;5032462;28;20061;-86
2023/09/05 07:40:10;;;;;;;0.20;0.20;;;;;;;20.71;62.52;102029.44;5035877;28;20075;-86
2023/09/05 07:42:37;;;;;;;0.10;0.10;;;;;;;20.72;62.04;102025.78;5028774;28;20038;-87
2023/09/05 07:45:04;;;;;;;0.20;0.20;;;;;;;20.82;61.99;102024.44;5035004;28;20033;-86
2023/09/05 07:47:30;;;;;;;2.28;1.75;;;;;;;20.91;61.77;102017.78;5031108;28;20119;-87
2023/09/05 07:49:56;;;;;;;0.10;0.10;;;;;;;20.96;61.34;102014.84;5035371;28;20096;-86
2023/09/05 07:52:22;;;;;;;0.57;0.57;;;;;;;21.06;61.01;102016.19;5035731;28;20013;-86
2023/09/05 07:54:48;;;;;;;0.80;0.50;;;;;;;21.09;60.68;102012.50;5032283;28;20025;-86
2023/09/05 07:57:16;;;;;;;0.32;0.32;;;;;;;21.16;60.80;102011.28;5030456;28;20096;-86
2023/09/05 07:59:44;;;;;;;0.43;0.43;;;;;;;21.27;60.63;102019.72;5031942;28;20065;-86
2023/09/05 08:02:10;;;;;;;0.35;0.25;;;;;;;21.37;60.44;102016.59;5034430;28;20067;-87
2023/09/05 08:04:38;;;;;;;0.15;0.15;;;;;;;21.52;60.32;102018.56;5034705;28;20084;-85
2023/09/05 08:07:05;;;;;;;0.13;0.13;;;;;;;21.62;60.13;102008.22;5034895;28;20052;-86
2023/09/05 08:09:32;;;;;;;0.10;0.10;;;;;;;21.69;59.71;102006.13;5035269;28;20032;-86
2023/09/05 08:11:58;;;;;;;0.30;0.30;;;;;;;21.72;58.80;102012.25;5035157;28;20076;-86
2023/09/05 08:14:24;;;;;;;0.10;0.10;;;;;;;21.89;59.00;102011.41;5035243;28;20067;-86
2023/09/05 08:16:50;;;;;;;0.38;0.38;;;;;;;21.97;58.71;102013.75;5034469;28;20025;-86
2023/09/05 08:19:16;;;;;;;0.30;0.30;;;;;;;22.09;58.97;102009.53;5035213;28;20025;-86
2023/09/05 08:21:42;;;;;;;0.30;0.30;;;;;;;22.15;58.69;102014.63;5042469;28;20029;-86
2023/09/05 08:24:09;;;;;;;0.10;0.10;;;;;;;22.26;58.66;102020.38;5036532;28;20033;-86
2023/09/05 08:26:36;;;;;;;0.10;0.10;;;;;;;22.41;58.36;102021.44;5035453;28;20025;-86
2023/09/05 08:29:03;;;;;;;0.10;0.10;;;;;;;22.47;57.26;102017.56;5036257;28;20456;-86
2023/09/05 08:31:32;;;;;;;0.00;0.00;;;;;;;22.62;57.67;102010.50;5041288;28;20017;-86
2023/09/05 08:33:59;;;;;;;0.20;0.20;;;;;;;22.68;57.23;102006.56;5035130;28;20053;-86
2023/09/05 08:36:25;;;;;;;0.52;0.52;;;;;;;22.75;56.37;102011.59;5046340;23;20040;-81
2023/09/05 08:38:51;;;;;;;0.75;0.52;;;;;;;22.88;55.82;102006.41;5022897;28;20034;-80
2023/09/05 08:41:17;;;;;;;0.00;0.00;;;;;;;22.99;56.62;102007.63;5022898;28;20076;-80
2023/09/05 08:43:45;;;;;;;0.10;0.10;;;;;;;23.08;56.88;102002.59;5021410;28;20041;-80
2023/09/05 08:46:12;;;;;;;0.10;0.10;;;;;;;23.20;56.25;102014.63;5022614;28;20117;-79
2023/09/05 08:48:38;;;;;;;0.20;0.20;;;;;;;23.31;56.32;102005.03;5021573;28;20384;-80
2023/09/05 08:51:10;;;;;;;0.10;0.10;;;;;;;23.44;56.24;102011.53;5017247;28;20030;-81
2023/09/05 08:53:43;;;;;;;3.60;0.52;;;;;;;23.58;56.36;102010.75;5022328;28;20048;-82
2023/09/05 08:56:10;;;;;;;0.55;0.55;;;;;;;23.65;55.90;102016.66;5022239;28;20022;-81
2023/09/05 08:58:38;;;;;;;0.10;0.10;;;;;;;23.75;55.09;102016.06;5024070;28;20034;-81
2023/09/05 09:01:04;;;;;;;0.10;0.10;;;;;;;23.84;54.99;102011.94;5024669;28;20395;-81
2023/09/05 09:03:30;;;;;;;0.10;0.10;;;;;;;23.97;55.11;102016.69;5023304;28;20026;-81
2023/09/05 09:05:57;;;;;;;0.10;0.10;;;;;;;24.05;54.41;102012.56;5022818;28;20041;-81
2023/09/05 09:08:23;;;;;;;0.10;0.10;;;;;;;24.19;54.50;102019.88;5023741;28;20049;-81
2023/09/05 09:11:06;;;;;;;0.13;0.13;;;;;;;24.38;54.24;102018.78;5026595;28;20077;-81
2023/09/05 09:13:33;;;;;;;0.20;0.20;;;;;;;24.35;52.16;102022.53;5031623;28;20022;-81
2023/09/05 09:16:00;;;;;;;0.10;0.10;;;;;;;24.55;54.24;102018.63;5029657;28;20038;-81
2023/09/05 09:18:26;;;;;;;0.10;0.10;;;;;;;24.65;53.70;102028.91;5025249;28;20587;-81
2023/09/05 09:20:53;;;;;;;0.10;0.10;;;;;;;24.73;53.27;102023.91;5022746;28;20105;-82
2023/09/05 09:23:35;;;;;;;0.20;0.20;;;;;;;24.89;53.31;102028.41;5022811;28;20057;-81
2023/09/05 09:26:02;;;;;;;;;;;;;;;25.08;52.64;102031.69;5022910;28;20029;-82
2023/09/05 09:28:30;;;;;;;0.10;0.10;;;;;;;25.05;53.36;102031.91;5022527;28;19913;-81
2023/09/05 09:30:59;;;;;;;0.10;0.10;;;;;;;25.13;52.92;102032.25;5021719;28;20021;-82
2023/09/05 09:33:25;;;;;;;0.10;0.10;;;;;;;25.22;52.46;102027.25;5021364;28;20018;-82
2023/09/05 09:36:04;;;;;;;0.03;0.03;;;;;;;25.36;52.18;102027.25;5015106;28;20030;-82
2023/09/05 09:38:30;;;;;;;0.00;0.00;;;;;;;25.39;51.73;102021.63;5023645;28;20060;-82
2023/09/05 09:41:01;;;;;;;0.10;0.10;;;;;;;25.50;52.02;102016.38;5022635;28;20021;-81
2023/09/05 09:43:28;;;;;;;0.10;0.10;;;;;;;25.60;51.70;102016.66;5021091;28;20026;-82
2023/09/05 09:45:56;;;;;;;0.10;0.10;;;;;;;25.70;52.30;102008.78;5016882;28;20038;-82
2023/09/05 09:48:27;;;;;;;0.10;0.10;;;;;;;25.76;52.13;102005.66;5019941;28;20054;-82
2023/09/05 09:50:56;;;;;;;2.72;1.00;;;;;;;25.87;51.38;102009.50;5021042;28;20018;-81
2023/09/05 09:53:30;;;;;;;0.10;0.10;;;;;;;25.98;50.70;102010.53;5020952;28;20025;-82
2023/09/05 09:55:57;;;;;;;0.80;0.47;;;;;;;26.06;51.87;102006.47;5021250;28;20061;-81
2023/09/05 09:58:26;;;;;;;1.38;0.57;;;;;;;26.16;51.82;102011.16;5022804;28;20041;-82
2023/09/05 10:00:55;;;;;;;0.30;0.30;;;;;;;26.28;50.92;102000.44;5011245;28;20025;-82
2023/09/05 10:03:24;;;;;;;0.10;0.10;;;;;;;26.36;50.40;101999.94;5020842;28;20026;-82
2023/09/05 10:05:52;;;;;;;0.10;0.10;;;;;;;26.48;51.07;101997.22;5020487;28;20029;-82
2023/09/05 10:08:20;;;;;;;0.57;0.30;;;;;;;26.59;51.14;101984.72;5019378;28;20116;-82
2023/09/05 10:10:47;;;;;;;0.30;0.30;;;;;;;26.63;47.92;101986.25;5018099;28;20026;-82
2023/09/05 10:13:15;;;;;;;0.10;0.10;;;;;;;26.77;49.88;101979.88;5022087;28;20026;-82
2023/09/05 10:15:42;;;;;;;0.17;0.17;;;;;;;26.85;49.71;101979.34;5019034;28;20451;-82
2023/09/05 10:18:09;;;;;;;0.10;0.10;;;;;;;26.95;49.60;101969.53;5023104;28;20085;-83
2023/09/05 10:20:39;;;;;;;0.08;0.08;;;;;;;27.07;49.83;101960.47;5020033;28;20022;-83
2023/09/05 10:23:06;;;;;;;0.10;0.10;;;;;;;27.16;49.81;101960.81;5021322;28;20030;-82
2023/09/05 10:25:36;;;;;;;0.10;0.10;;;;;;;27.26;48.81;101960.00;5021263;28;20022;-82
2023/09/05 10:28:03;;;;;;;1.10;0.85;;;;;;;27.34;49.25;101959.44;5021392;28;20021;-82
2023/09/05 10:30:29;;;;;;;0.10;0.10;;;;;;;27.44;48.70;101951.47;5021095;28;20075;-82
2023/09/05 10:32:58;;;;;;;0.20;0.20;;;;;;;27.54;48.81;101951.66;5020028;28;20034;-81
2023/09/05 10:35:24;;;;;;;0.10;0.10;;;;;;;27.64;48.87;101958.19;5019475;28;20578;-81
2023/09/05 10:37:58;;;;;;;0.10;0.10;;;;;;;27.71;49.35;101953.97;5017427;28;20088;-82
2023/09/05 10:40:34;;;;;;;0.10;0.10;;;;;;;27.91;49.02;101954.34;5018275;28;20030;-83
2023/09/05 10:43:03;;;;;;;0.10;0.10;;;;;;;27.98;48.94;101960.19;5021360;28;20022;-82
2023/09/05 10:45:32;;;;;;;0.40;0.40;;;;;;;28.07;48.19;101960.38;5012097;28;20026;-82
2023/09/05 10:48:07;;;;;;;0.10;0.10;;;;;;;28.20;48.58;101959.41;5018938;28;20030;-83
2023/09/05 10:51:13;;;;;;;0.65;0.65;;;;;;;28.35;48.47;101951.91;5018199;28;20101;-79
2023/09/05 10:53:41;;;;;;;0.20;0.20;;;;;;;28.36;47.50;101953.66;5020410;28;20184;-80
2023/09/05 10:56:43;;;;;;;0.13;0.13;;;;;;;28.54;47.27;101951.34;5014647;28;20029;-82
2023/09/05 10:59:11;;;;;;;;;;;;;;;28.65;47.09;101948.63;5017527;28;20022;-83
2023/09/05 11:04:25;;;;;;;0.00;0.00;;;;;;;28.69;48.13;101952.88;5089127;27;20449;-84
2023/09/05 11:06:57;;;;;;;0.08;0.08;;;;;;;28.72;47.61;101949.03;5089224;28;20025;-81
2023/09/05 11:09:24;;;;;;;0.05;0.05;;;;;;;28.78;46.94;101950.41;5072335;28;20025;-83
2023/09/05 11:11:52;;;;;;;0.10;0.10;;;;;;;28.82;46.45;101938.25;5079559;28;20028;-83
2023/09/05 11:14:30;;;;;;;0.20;0.20;;;;;;;28.97;47.21;101936.97;5081225;28;20399;-84
2023/09/05 11:16:56;;;;;;;0.00;0.00;;;;;;;28.97;46.88;101930.69;5079486;28;20024;-84
2023/09/05 11:22:23;;;;;;;1.02;0.52;;;;;;;29.18;46.39;101936.22;5059881;28;20358;-82
2023/09/05 11:24:51;;;;;;;0.00;0.00;;;;;;;29.22;46.82;101926.78;5055038;28;20025;-82
2023/09/05 11:27:21;;;;;;;0.80;0.80;;;;;;;29.29;46.90;101928.06;5051773;28;20029;-82
2023/09/05 11:29:51;;;;;;;0.55;0.55;;;;;;;29.34;46.40;101925.81;5055672;28;20029;-82
2023/09/05 11:32:17;;;;;;;0.00;0.00;;;;;;;29.40;45.64;101926.28;5055214;28;20029;-84
2023/09/05 11:34:46;;;;;;;0.10;0.10;;;;;;;29.47;44.22;101922.06;5053219;28;20139;-83